Yeager Information

FAA: CRW - ICAO: KCRW

Yeager (Airport) Location

State West Virginia
County Kanawha
City Charleston
Yeager (Airport) is 3 miles east of Charleston, WV.
Latitude 38-22-33.6455N
Longitude 081-35-34.4144W
Elevation 947ft

Yeager METARs

METAR KCRW 281254Z 04005KT 10SM BKN150 08/07 A2973 RMK AO2 SLP069 VLY FG T00830072
Altimeter 29.73"
Temperature 8.3°C (46.9°F)
Wind 40° at 5KT
Clouds broken at 15,000ft
Visibility 10.0mi
Time observed: 2021-10-28T12:54:00Z

Yeager (Airport) Details

Status Operational
Activation August 1947
Ownership Public
Usage Public
Chart CINCINNATI
ATC on-site Yes
Beacon schedule sunset-sunrise
Beacon color clear green

Yeager (Airport) Contacts

Owner CENTRAL WVA REG ARPT AUTH
Owner address 100 AIRPORT ROAD SUITE 175, CHARLESTON, WV 25311
Owner phone (304) 344-8033
Manager KENNETH GORDON
Manager address N/A, N/A
Manager phone 509-577-3719

Yeager Radio Frequencies

Yeager (Airport) Radio Frequencies

UNICOM 122.95
Common traffic advisory frequency (CTAF) N/A